createdAt,value
2023-03-26T00:00:35.577Z,9.418206
2023-03-26T00:01:35.583Z,9.418206
2023-03-26T00:02:35.648Z,9.418247
2023-03-26T00:03:35.557Z,9.418184
2023-03-26T00:04:35.541Z,9.418128
2023-03-26T00:05:35.595Z,9.418200
2023-03-26T00:06:35.539Z,9.418295
2023-03-26T00:07:35.524Z,9.418293
2023-03-26T00:08:35.516Z,9.418258
2023-03-26T00:09:35.511Z,9.418297
2023-03-26T00:10:35.503Z,9.418332
2023-03-26T00:11:35.511Z,9.418293
2023-03-26T00:12:35.480Z,9.418216
2023-03-26T00:13:36.504Z,9.418274
2023-03-26T00:14:35.520Z,9.418316
2023-03-26T00:15:35.477Z,9.418354
2023-03-26T00:16:35.551Z,9.418341
2023-03-26T00:17:35.473Z,9.418344
2023-03-26T00:18:35.450Z,9.418369
2023-03-26T00:19:35.440Z,9.418351
2023-03-26T00:20:35.436Z,9.418303
2023-03-26T00:21:35.509Z,9.418345
2023-03-26T00:22:35.419Z,9.418384
2023-03-26T00:23:35.430Z,9.418369
2023-03-26T00:24:35.463Z,9.418440
2023-03-26T00:25:35.399Z,9.418414
2023-03-26T00:26:35.405Z,9.418401
2023-03-26T00:27:35.394Z,9.418354
2023-03-26T00:28:35.388Z,9.418373
2023-03-26T00:29:35.412Z,9.418346
2023-03-26T00:30:35.393Z,9.418279
2023-03-26T00:31:35.390Z,9.418283
2023-03-26T00:32:35.376Z,9.418298
2023-03-26T00:33:35.356Z,9.418322
2023-03-26T00:34:35.373Z,9.418327
2023-03-26T00:35:35.376Z,9.418312
2023-03-26T00:36:35.651Z,9.418286
2023-03-26T00:37:35.335Z,9.418336
2023-03-26T00:38:35.342Z,9.418247
2023-03-26T00:39:35.319Z,9.418295
2023-03-26T00:40:35.316Z,9.418319
2023-03-26T00:41:35.341Z,9.418274
2023-03-26T00:42:35.304Z,9.418300
2023-03-26T00:43:35.323Z,9.418321
2023-03-26T00:44:35.310Z,9.418280
2023-03-26T00:45:35.282Z,9.418223
2023-03-26T00:46:35.348Z,9.418222
2023-03-26T00:47:35.277Z,9.418234
2023-03-26T00:48:44.478Z,9.418223
2023-03-26T00:49:37.266Z,9.418287
2023-03-26T00:50:35.257Z,9.418290
2023-03-26T00:51:35.255Z,9.418306
2023-03-26T00:52:35.238Z,9.418293
2023-03-26T00:53:35.230Z,9.418255
2023-03-26T00:54:35.230Z,9.418282
2023-03-26T00:55:35.222Z,9.418236
2023-03-26T00:56:35.295Z,9.418244
2023-03-26T00:57:36.128Z,9.418301
2023-03-26T00:58:36.200Z,9.418298
2023-03-26T00:59:35.198Z,9.418318
2023-03-26T01:00:35.210Z,9.418269
2023-03-26T01:01:35.212Z,9.418290
2023-03-26T01:02:35.238Z,9.418283
2023-03-26T01:03:35.297Z,9.418330
2023-03-26T01:04:35.396Z,9.418335
2023-03-26T01:05:35.159Z,9.418322
2023-03-26T01:06:35.167Z,9.418260
2023-03-26T01:07:35.171Z,9.418226
2023-03-26T01:08:35.136Z,9.418196
2023-03-26T01:09:35.133Z,9.418222
2023-03-26T01:10:35.126Z,9.418130
2023-03-26T01:11:35.135Z,9.418072
2023-03-26T01:12:35.133Z,9.418051
2023-03-26T01:13:35.111Z,9.418124
2023-03-26T01:14:35.104Z,9.418157
2023-03-26T01:15:35.123Z,9.418124
2023-03-26T01:16:35.090Z,9.418151
2023-03-26T01:17:35.116Z,9.418307
2023-03-26T01:18:35.085Z,9.418185
2023-03-26T01:19:35.071Z,9.418134
2023-03-26T01:20:35.094Z,9.418095
2023-03-26T01:21:35.059Z,9.418058
2023-03-26T01:22:35.060Z,9.418368
2023-03-26T01:23:35.063Z,9.418404
2023-03-26T01:24:35.046Z,9.418420
2023-03-26T01:25:35.053Z,9.418369
2023-03-26T01:26:35.047Z,9.418357
2023-03-26T01:27:35.022Z,9.418365
2023-03-26T01:28:35.030Z,9.418186
2023-03-26T01:29:35.042Z,9.418209
2023-03-26T01:30:35.017Z,9.418017
2023-03-26T01:31:35.025Z,9.418210
2023-03-26T01:32:35.107Z,9.418156
2023-03-26T01:33:35.073Z,9.418258
2023-03-26T01:34:35.053Z,9.418232
2023-03-26T01:35:34.993Z,9.418208
2023-03-26T01:36:34.997Z,9.418076
2023-03-26T01:37:34.965Z,9.418257
2023-03-26T01:38:34.978Z,9.418358
2023-03-26T01:39:34.951Z,9.418698
2023-03-26T01:40:34.939Z,9.418337
2023-03-26T01:41:34.944Z,9.418203
2023-03-26T01:42:34.924Z,9.418220
2023-03-26T01:43:34.920Z,9.418199
2023-03-26T01:44:34.937Z,9.418138
2023-03-26T01:45:34.909Z,9.418098
2023-03-26T01:46:34.992Z,9.418139
2023-03-26T01:47:34.954Z,9.418172
2023-03-26T01:48:34.891Z,9.418363
2023-03-26T01:49:34.928Z,9.418337
2023-03-26T01:50:34.871Z,9.418267
2023-03-26T01:51:34.864Z,9.418322
2023-03-26T01:52:34.873Z,9.418215
2023-03-26T01:53:34.861Z,9.418061
2023-03-26T01:54:34.863Z,9.418193
2023-03-26T01:55:34.930Z,9.418118
2023-03-26T01:56:34.860Z,9.418118
2023-03-26T01:57:34.839Z,9.418200
2023-03-26T01:58:34.830Z,9.418343
2023-03-26T01:59:34.851Z,9.418290
2023-03-26T02:00:34.827Z,9.418418
2023-03-26T02:01:34.888Z,9.418147
2023-03-26T02:02:34.949Z,9.417901
2023-03-26T02:03:34.833Z,9.418007
2023-03-26T02:04:34.808Z,9.418199
2023-03-26T02:05:34.788Z,9.418253
2023-03-26T02:06:34.768Z,9.418401
2023-03-26T02:07:34.789Z,9.418348
2023-03-26T02:08:34.754Z,9.417953
2023-03-26T02:09:34.749Z,9.418146
2023-03-26T02:10:34.767Z,9.418072
2023-03-26T02:11:35.951Z,9.418138
2023-03-26T02:12:35.738Z,9.418109
2023-03-26T02:13:34.737Z,9.418073
2023-03-26T02:14:34.724Z,9.418180
2023-03-26T02:15:34.736Z,9.418365
2023-03-26T02:16:34.752Z,9.418256
2023-03-26T02:17:34.740Z,9.418234
2023-03-26T02:18:34.688Z,9.418146
2023-03-26T02:19:34.689Z,9.418233
2023-03-26T02:20:34.699Z,9.418189
2023-03-26T02:21:34.685Z,9.418251
2023-03-26T02:22:34.659Z,9.418191
2023-03-26T02:23:34.699Z,9.418156
2023-03-26T02:24:34.668Z,9.418268
2023-03-26T02:25:34.657Z,9.418221
2023-03-26T02:26:34.671Z,9.418102
2023-03-26T02:27:34.633Z,9.418177
2023-03-26T02:28:34.653Z,9.418075
2023-03-26T02:29:34.627Z,9.418245
2023-03-26T02:30:35.618Z,9.418290
2023-03-26T02:31:34.700Z,9.418124
2023-03-26T02:32:34.624Z,9.418255
2023-03-26T02:33:34.609Z,9.418302
2023-03-26T02:34:34.600Z,9.418242
2023-03-26T02:35:34.694Z,9.418104
2023-03-26T02:36:34.628Z,9.418181
2023-03-26T02:37:34.597Z,9.418185
2023-03-26T02:38:34.578Z,9.418343
2023-03-26T02:39:34.569Z,9.418212
2023-03-26T02:40:34.553Z,9.418161
2023-03-26T02:41:34.559Z,9.418221
2023-03-26T02:42:34.558Z,9.418119
2023-03-26T02:43:34.546Z,9.418101
2023-03-26T02:44:34.530Z,9.418031
2023-03-26T02:45:34.569Z,9.418178
2023-03-26T02:46:34.524Z,9.418162
2023-03-26T02:47:34.516Z,9.418188
2023-03-26T02:48:34.514Z,9.418182
2023-03-26T02:49:34.496Z,9.418200
2023-03-26T02:50:34.485Z,9.418179
2023-03-26T02:51:34.495Z,9.418205
2023-03-26T02:52:34.467Z,9.418135
2023-03-26T02:53:34.496Z,9.418118
2023-03-26T02:54:34.471Z,9.418109
2023-03-26T02:55:34.449Z,9.418243
2023-03-26T02:56:34.490Z,9.418115
2023-03-26T02:57:34.442Z,9.418212
2023-03-26T02:58:34.438Z,9.418208
2023-03-26T02:59:34.432Z,9.418249
2023-03-26T03:00:34.431Z,9.418281
2023-03-26T03:01:34.446Z,9.418279
2023-03-26T03:02:34.601Z,9.418238
2023-03-26T03:03:34.452Z,9.418154
2023-03-26T03:04:34.396Z,9.418277
2023-03-26T03:05:34.410Z,9.418301
2023-03-26T03:06:34.389Z,9.418388
2023-03-26T03:07:34.384Z,9.418312
2023-03-26T03:08:34.387Z,9.418330
2023-03-26T03:09:34.363Z,9.418287
2023-03-26T03:10:34.348Z,9.418178
2023-03-26T03:11:34.363Z,9.418306
2023-03-26T03:12:34.332Z,9.418272
2023-03-26T03:13:34.348Z,9.418258
2023-03-26T03:14:34.327Z,9.418244
2023-03-26T03:15:34.319Z,9.418316
2023-03-26T03:16:34.351Z,9.418274
2023-03-26T03:17:34.363Z,9.418203
2023-03-26T03:18:34.307Z,9.418364
2023-03-26T03:19:34.307Z,9.418387
2023-03-26T03:20:34.280Z,9.418379
2023-03-26T03:21:34.271Z,9.418296
2023-03-26T03:22:34.279Z,9.418429
2023-03-26T03:23:34.292Z,9.418268
2023-03-26T03:24:34.280Z,9.418397
2023-03-26T03:25:34.257Z,9.418408
2023-03-26T03:26:34.262Z,9.418269
2023-03-26T03:27:34.246Z,9.418305
2023-03-26T03:28:34.246Z,9.418478
2023-03-26T03:29:34.232Z,9.418449
2023-03-26T03:30:34.224Z,9.418425
2023-03-26T03:31:34.218Z,9.418279
2023-03-26T03:32:34.235Z,9.418300
2023-03-26T03:33:34.200Z,9.418318
2023-03-26T03:34:34.218Z,9.418200
2023-03-26T03:35:34.202Z,9.418243
2023-03-26T03:36:34.180Z,9.418272
2023-03-26T03:37:34.169Z,9.418227
2023-03-26T03:38:34.171Z,9.418271
2023-03-26T03:39:34.179Z,9.418283
2023-03-26T03:40:34.165Z,9.418371
2023-03-26T03:41:34.180Z,9.418399
2023-03-26T03:42:34.143Z,9.418432
2023-03-26T03:43:34.127Z,9.418454
2023-03-26T03:44:34.128Z,9.418393
2023-03-26T03:45:34.119Z,9.418319
2023-03-26T03:46:35.185Z,9.418187
2023-03-26T03:47:34.167Z,9.418265
2023-03-26T03:48:34.097Z,9.418394
2023-03-26T03:49:34.091Z,9.418601
2023-03-26T03:50:35.832Z,9.418600
2023-03-26T03:51:35.105Z,9.418469
2023-03-26T03:52:34.089Z,9.418437
2023-03-26T03:53:34.069Z,9.418369
2023-03-26T03:54:34.073Z,9.418387
2023-03-26T03:55:34.051Z,9.418395
2023-03-26T03:56:34.111Z,9.418386
2023-03-26T03:57:34.043Z,9.418447
2023-03-26T03:58:34.043Z,9.418428
2023-03-26T03:59:34.040Z,9.418260
2023-03-26T04:00:34.021Z,9.418206
2023-03-26T04:01:34.014Z,9.418279
2023-03-26T04:02:34.097Z,9.418371
2023-03-26T04:03:34.624Z,9.418365
2023-03-26T04:04:34.035Z,9.418302
2023-03-26T04:05:33.987Z,9.418329
2023-03-26T04:06:34.018Z,9.418261
2023-03-26T04:07:33.999Z,9.418164
2023-03-26T04:08:33.974Z,9.418213
2023-03-26T04:09:33.964Z,9.418338
2023-03-26T04:10:33.965Z,9.418374
2023-03-26T04:11:33.995Z,9.418374
2023-03-26T04:12:33.959Z,9.418218
2023-03-26T04:13:33.935Z,9.418219
2023-03-26T04:14:33.965Z,9.418268
2023-03-26T04:15:33.926Z,9.418253
2023-03-26T04:16:34.965Z,9.418253
2023-03-26T04:17:33.960Z,9.418410
2023-03-26T04:18:33.928Z,9.418372
2023-03-26T04:19:33.911Z,9.418372
2023-03-26T04:20:33.893Z,9.418310
2023-03-26T04:21:33.911Z,9.418287
2023-03-26T04:22:33.884Z,9.418309
2023-03-26T04:23:33.881Z,9.418311
2023-03-26T04:24:33.874Z,9.418311
2023-03-26T04:25:33.882Z,9.418311
2023-03-26T04:26:33.858Z,9.418309
2023-03-26T04:27:33.848Z,9.418276
2023-03-26T04:28:33.857Z,9.418470
2023-03-26T04:29:33.841Z,9.418405
2023-03-26T04:30:33.888Z,9.418395
2023-03-26T04:31:33.860Z,9.418395
2023-03-26T04:32:33.847Z,9.418395
2023-03-26T04:33:33.816Z,9.418395
2023-03-26T04:34:33.802Z,9.418260
2023-03-26T04:35:33.871Z,9.418260
2023-03-26T04:36:33.789Z,9.418260
2023-03-26T04:37:33.787Z,9.418260
2023-03-26T04:38:33.793Z,9.418260
2023-03-26T04:39:33.775Z,9.418260
2023-03-26T04:40:33.776Z,9.418260
2023-03-26T04:41:33.790Z,9.418260
2023-03-26T04:42:33.757Z,9.418260
2023-03-26T04:43:33.750Z,9.418355
2023-03-26T04:44:33.735Z,9.418185
2023-03-26T04:45:33.749Z,9.418278
2023-03-26T04:46:33.914Z,9.418278
2023-03-26T04:47:34.739Z,9.418278
2023-03-26T04:48:33.722Z,9.418278
2023-03-26T04:49:33.778Z,9.418231
2023-03-26T04:50:33.700Z,9.418231
2023-03-26T04:51:33.701Z,9.418193
2023-03-26T04:52:33.686Z,9.418250
2023-03-26T04:53:33.689Z,9.417993
2023-03-26T04:54:33.674Z,9.417986
2023-03-26T04:55:33.671Z,9.417977
2023-03-26T04:56:33.703Z,9.418033
2023-03-26T04:57:33.657Z,9.418210
2023-03-26T04:58:33.652Z,9.418284
2023-03-26T04:59:33.652Z,9.418486
2023-03-26T05:00:33.628Z,9.418526
2023-03-26T05:01:33.707Z,9.418598
2023-03-26T05:02:33.682Z,9.418394
2023-03-26T05:03:33.616Z,9.418328
2023-03-26T05:04:33.620Z,9.418297
2023-03-26T05:05:33.603Z,9.418276
2023-03-26T05:06:33.607Z,9.418273
2023-03-26T05:07:33.604Z,9.418310
2023-03-26T05:08:33.578Z,9.418212
2023-03-26T05:09:34.595Z,9.418144
2023-03-26T05:10:33.567Z,9.418277
2023-03-26T05:11:33.556Z,9.418272
2023-03-26T05:12:33.572Z,9.418241
2023-03-26T05:13:33.544Z,9.418259
2023-03-26T05:14:33.550Z,9.418277
2023-03-26T05:15:33.540Z,9.418274
2023-03-26T05:16:33.534Z,9.418193
2023-03-26T05:17:33.542Z,9.418237
2023-03-26T05:18:33.548Z,9.418220
2023-03-26T05:19:33.534Z,9.418236
2023-03-26T05:20:33.498Z,9.418219
2023-03-26T05:21:33.493Z,9.418233
2023-03-26T05:22:33.990Z,9.418312
2023-03-26T05:23:33.480Z,9.418322
2023-03-26T05:24:33.484Z,9.418327
2023-03-26T05:25:33.477Z,9.418396
2023-03-26T05:26:33.462Z,9.418317
2023-03-26T05:27:33.449Z,9.418257
2023-03-26T05:28:33.451Z,9.418210
2023-03-26T05:29:33.438Z,9.418155
2023-03-26T05:30:33.445Z,9.418159
2023-03-26T05:31:33.438Z,9.418223
2023-03-26T05:32:33.471Z,9.418233
2023-03-26T05:33:33.477Z,9.418218
2023-03-26T05:34:33.411Z,9.418198
2023-03-26T05:35:33.461Z,9.418264
2023-03-26T05:36:33.395Z,9.418220
2023-03-26T05:37:33.423Z,9.418237
2023-03-26T05:38:33.386Z,9.418169
2023-03-26T05:39:33.371Z,9.418213
2023-03-26T05:40:33.371Z,9.418370
2023-03-26T05:41:33.367Z,9.418303
2023-03-26T05:42:33.356Z,9.418248
2023-03-26T05:43:33.342Z,9.418335
2023-03-26T05:44:33.346Z,9.418353
2023-03-26T05:45:33.362Z,9.418175
2023-03-26T05:46:33.368Z,9.418299
2023-03-26T05:47:33.354Z,9.418377
2023-03-26T05:48:33.323Z,9.418380
2023-03-26T05:49:33.329Z,9.418480
2023-03-26T05:50:33.301Z,9.418336
2023-03-26T05:51:33.305Z,9.418308
2023-03-26T05:52:33.291Z,9.418337
2023-03-26T05:53:33.289Z,9.418415
2023-03-26T05:54:33.278Z,9.418366
2023-03-26T05:55:33.276Z,9.418382
2023-03-26T05:56:33.303Z,9.418309
2023-03-26T05:57:33.266Z,9.418308
2023-03-26T05:58:33.247Z,9.418332
2023-03-26T05:59:33.236Z,9.418300
2023-03-26T06:00:33.253Z,9.418313
2023-03-26T06:01:33.239Z,9.418252
2023-03-26T06:02:33.224Z,9.418357
2023-03-26T06:03:33.326Z,9.418406
2023-03-26T06:04:33.311Z,9.418301
2023-03-26T06:05:33.204Z,9.418301
2023-03-26T06:06:33.376Z,9.418296
2023-03-26T06:07:34.180Z,9.418317
2023-03-26T06:08:33.195Z,9.418317
2023-03-26T06:09:33.179Z,9.418277
2023-03-26T06:10:33.163Z,9.418277
2023-03-26T06:11:33.206Z,9.418256
2023-03-26T06:12:33.151Z,9.418258
2023-03-26T06:13:33.142Z,9.418301
2023-03-26T06:14:33.138Z,9.418346
2023-03-26T06:15:33.184Z,9.418225
2023-03-26T06:16:33.180Z,9.418249
2023-03-26T06:17:33.161Z,9.418325
2023-03-26T06:18:33.157Z,9.418291
2023-03-26T06:19:33.110Z,9.418251
2023-03-26T06:20:33.094Z,9.418233
2023-03-26T06:21:33.093Z,9.418237
2023-03-26T06:22:33.094Z,9.418186
2023-03-26T06:23:33.084Z,9.418256
2023-03-26T06:24:33.098Z,9.418297
2023-03-26T06:25:33.067Z,9.418324
2023-03-26T06:26:33.069Z,9.418427
2023-03-26T06:27:33.052Z,9.418343
2023-03-26T06:28:33.052Z,9.418377
2023-03-26T06:29:33.059Z,9.418252
2023-03-26T06:30:33.038Z,9.418323
2023-03-26T06:31:33.073Z,9.418361
2023-03-26T06:32:33.033Z,9.418356
2023-03-26T06:33:33.028Z,9.418355
2023-03-26T06:34:33.004Z,9.418401
2023-03-26T06:35:33.061Z,9.418374
2023-03-26T06:36:33.002Z,9.418332
2023-03-26T06:37:32.993Z,9.418259
2023-03-26T06:38:32.995Z,9.418269
2023-03-26T06:39:32.988Z,9.418265
2023-03-26T06:40:32.984Z,9.418253
2023-03-26T06:41:32.969Z,9.418278
2023-03-26T06:43:08.956Z,9.418219
2023-03-26T06:43:34.112Z,9.418179
2023-03-26T06:44:32.948Z,9.418217
2023-03-26T06:45:32.944Z,9.418242
2023-03-26T06:46:32.988Z,9.418260
2023-03-26T06:47:32.962Z,9.418171
2023-03-26T06:48:33.053Z,9.418136
2023-03-26T06:49:32.906Z,9.418194
2023-03-26T06:50:32.959Z,9.418203
2023-03-26T06:51:32.936Z,9.418211
2023-03-26T06:52:32.901Z,9.418264
2023-03-26T06:53:32.875Z,9.418262
2023-03-26T06:54:32.882Z,9.418240
2023-03-26T06:55:32.859Z,9.418286
2023-03-26T06:56:32.882Z,9.418292
2023-03-26T06:57:32.887Z,9.418322
2023-03-26T06:58:32.840Z,9.418301
2023-03-26T06:59:32.840Z,9.418227
2023-03-26T07:00:32.836Z,9.418244
2023-03-26T07:01:32.878Z,9.418242
2023-03-26T07:02:32.893Z,9.418175
2023-03-26T07:03:32.931Z,9.418253
2023-03-26T07:04:32.808Z,9.418259
2023-03-26T07:05:32.823Z,9.418224
2023-03-26T07:06:32.814Z,9.418216
2023-03-26T07:07:32.818Z,9.418242
2023-03-26T07:08:32.822Z,9.418111
2023-03-26T07:09:32.789Z,9.418211
2023-03-26T07:10:32.786Z,9.418181
2023-03-26T07:11:32.771Z,9.418204
2023-03-26T07:12:32.772Z,9.418178
2023-03-26T07:13:32.767Z,9.418199
2023-03-26T07:14:32.755Z,9.418237
2023-03-26T07:15:32.735Z,9.418305
2023-03-26T07:16:32.806Z,9.418251
2023-03-26T07:17:32.748Z,9.418230
2023-03-26T07:18:32.743Z,9.418229
2023-03-26T07:19:32.724Z,9.418204
2023-03-26T07:20:32.715Z,9.418229
2023-03-26T07:21:32.705Z,9.418250
2023-03-26T07:22:32.724Z,9.418242
2023-03-26T07:23:32.694Z,9.418281
2023-03-26T07:24:32.758Z,9.418367
2023-03-26T07:25:32.684Z,9.418314
2023-03-26T07:26:32.696Z,9.418320
2023-03-26T07:27:32.680Z,9.418244
2023-03-26T07:28:32.686Z,9.418245
2023-03-26T07:29:32.660Z,9.418313
2023-03-26T07:30:32.652Z,9.418321
2023-03-26T07:31:32.699Z,9.418241
2023-03-26T07:32:32.675Z,9.418209
2023-03-26T07:33:32.656Z,9.418196
2023-03-26T07:34:32.633Z,9.418271
2023-03-26T07:35:32.724Z,9.418151
2023-03-26T07:36:32.613Z,9.418252
2023-03-26T07:37:32.601Z,9.418315
2023-03-26T07:38:32.627Z,9.418188
2023-03-26T07:39:32.587Z,9.418216
2023-03-26T07:40:33.584Z,9.418270
2023-03-26T07:41:32.572Z,9.418185
2023-03-26T07:42:32.578Z,9.418208
2023-03-26T07:43:32.583Z,9.418271
2023-03-26T07:44:34.651Z,9.418272
2023-03-26T07:45:32.590Z,9.418271
2023-03-26T07:46:32.559Z,9.418141
2023-03-26T07:47:32.629Z,9.418124
2023-03-26T07:48:32.533Z,9.418160
2023-03-26T07:49:32.571Z,9.418206
2023-03-26T07:50:32.521Z,9.418242
2023-03-26T07:51:32.538Z,9.418239
2023-03-26T07:52:32.510Z,9.418223
2023-03-26T07:53:32.508Z,9.418280
2023-03-26T07:54:32.528Z,9.418219
2023-03-26T07:55:32.498Z,9.418365
2023-03-26T07:56:32.623Z,9.418274
2023-03-26T07:57:32.548Z,9.418273
2023-03-26T07:58:32.471Z,9.418240
2023-03-26T07:59:32.460Z,9.418356
2023-03-26T08:00:32.481Z,9.418374
2023-03-26T08:01:32.456Z,9.418262
2023-03-26T08:02:32.534Z,9.418248
2023-03-26T08:03:32.594Z,9.418314
2023-03-26T08:04:32.495Z,9.418344
2023-03-26T08:05:32.427Z,9.418424
2023-03-26T08:06:32.445Z,9.418295
2023-03-26T08:07:32.409Z,9.418244
2023-03-26T08:08:32.425Z,9.418282
2023-03-26T08:09:32.396Z,9.418238
2023-03-26T08:10:32.448Z,9.418259
2023-03-26T08:11:32.412Z,9.418185
2023-03-26T08:12:32.399Z,9.418274
2023-03-26T08:13:32.376Z,9.418331
2023-03-26T08:14:32.365Z,9.418397
2023-03-26T08:15:32.384Z,9.418419
2023-03-26T08:16:32.365Z,9.418353
2023-03-26T08:17:32.414Z,9.418389
2023-03-26T08:18:32.345Z,9.418313
2023-03-26T08:19:32.334Z,9.418253
2023-03-26T08:20:32.315Z,9.418282
2023-03-26T08:21:32.314Z,9.418247
2023-03-26T08:22:32.335Z,9.418303
2023-03-26T08:23:32.311Z,9.418317
2023-03-26T08:24:32.308Z,9.418295
2023-03-26T08:25:32.290Z,9.418270
2023-03-26T08:26:32.298Z,9.418276
2023-03-26T08:27:32.275Z,9.418262
2023-03-26T08:28:32.281Z,9.418302
2023-03-26T08:29:32.253Z,9.418258
2023-03-26T08:30:32.258Z,9.418261
2023-03-26T08:31:32.304Z,9.418168
2023-03-26T08:32:32.281Z,9.418262
2023-03-26T08:33:32.250Z,9.418316
2023-03-26T08:34:32.278Z,9.418320
2023-03-26T08:35:32.283Z,9.418282
2023-03-26T08:36:32.218Z,9.418377
2023-03-26T08:37:32.228Z,9.418312
2023-03-26T08:38:32.199Z,9.418206
2023-03-26T08:39:32.228Z,9.418241
2023-03-26T08:40:32.193Z,9.418326
2023-03-26T08:41:32.201Z,9.418303
2023-03-26T08:42:32.172Z,9.418262
2023-03-26T08:43:32.170Z,9.418221
2023-03-26T08:44:32.196Z,9.418326
2023-03-26T08:45:32.150Z,9.418301
2023-03-26T08:46:32.245Z,9.418311
2023-03-26T08:47:32.163Z,9.418260
2023-03-26T08:48:32.122Z,9.418301
2023-03-26T08:49:32.118Z,9.418288
2023-03-26T08:50:32.135Z,9.418346
2023-03-26T08:51:32.130Z,9.418308
2023-03-26T08:52:32.115Z,9.418334
2023-03-26T08:53:32.127Z,9.418314
2023-03-26T08:54:32.100Z,9.418246
2023-03-26T08:55:32.110Z,9.418243
2023-03-26T08:56:32.142Z,9.418263
2023-03-26T08:57:32.079Z,9.418276
2023-03-26T08:58:32.098Z,9.418294
2023-03-26T08:59:32.059Z,9.418342
2023-03-26T09:00:32.049Z,9.418255
2023-03-26T09:01:32.075Z,9.418303
2023-03-26T09:02:32.079Z,9.418285
2023-03-26T09:03:32.151Z,9.418303
2023-03-26T09:04:32.029Z,9.418370
2023-03-26T09:05:32.022Z,9.418426
2023-03-26T09:06:32.008Z,9.418422
2023-03-26T09:07:32.025Z,9.418401
2023-03-26T09:08:31.994Z,9.418344
2023-03-26T09:09:31.993Z,9.418324
2023-03-26T09:10:31.982Z,9.418324
2023-03-26T09:11:31.983Z,9.418339
2023-03-26T09:12:31.980Z,9.418315
2023-03-26T09:13:31.966Z,9.418258
2023-03-26T09:14:31.972Z,9.418246
2023-03-26T09:15:31.958Z,9.418255
2023-03-26T09:16:31.984Z,9.418239
2023-03-26T09:17:31.977Z,9.418295
2023-03-26T09:18:31.950Z,9.418253
2023-03-26T09:19:32.942Z,9.418262
2023-03-26T09:20:31.912Z,9.418289
2023-03-26T09:21:31.918Z,9.418271
2023-03-26T09:22:31.910Z,9.418341
2023-03-26T09:23:31.945Z,9.418305
2023-03-26T09:24:31.902Z,9.418278
2023-03-26T09:25:31.909Z,9.418267
2023-03-26T09:26:31.906Z,9.418346
2023-03-26T09:27:31.876Z,9.418378
2023-03-26T09:28:31.867Z,9.418286
2023-03-26T09:29:33.122Z,9.418290
2023-03-26T09:30:32.883Z,9.418363
2023-03-26T09:31:31.903Z,9.418324
2023-03-26T09:32:31.860Z,9.418303
2023-03-26T09:33:31.862Z,9.418303
2023-03-26T09:34:31.848Z,9.418337
2023-03-26T09:35:31.868Z,9.418308
2023-03-26T09:36:31.812Z,9.418210
2023-03-26T09:37:31.844Z,9.418289
2023-03-26T09:38:31.865Z,9.418277
2023-03-26T09:39:31.809Z,9.418352
2023-03-26T09:40:31.790Z,9.418301
2023-03-26T09:41:31.790Z,9.418265
2023-03-26T09:42:31.803Z,9.418297
2023-03-26T09:43:31.804Z,9.418274
2023-03-26T09:44:31.772Z,9.418109
2023-03-26T09:45:31.846Z,9.418268
2023-03-26T09:46:31.780Z,9.418209
2023-03-26T09:47:31.785Z,9.418257
2023-03-26T09:48:31.740Z,9.418265
2023-03-26T09:49:31.741Z,9.418373
2023-03-26T09:50:31.762Z,9.418405
2023-03-26T09:51:31.752Z,9.418521
2023-03-26T09:52:31.773Z,9.418357
2023-03-26T09:53:31.711Z,9.418310
2023-03-26T09:54:31.709Z,9.418351
2023-03-26T09:55:31.711Z,9.418257
2023-03-26T09:56:31.708Z,9.418383
2023-03-26T09:57:31.738Z,9.418216
2023-03-26T09:58:31.687Z,9.418343
2023-03-26T09:59:31.680Z,9.418315
2023-03-26T10:00:31.663Z,9.418327
2023-03-26T10:01:31.727Z,9.418303
2023-03-26T10:02:46.763Z,9.418300
2023-03-26T10:03:32.699Z,9.418289
2023-03-26T10:04:31.681Z,9.418213
2023-03-26T10:05:31.658Z,9.418425
2023-03-26T10:06:31.638Z,9.418472
2023-03-26T10:07:31.601Z,9.418376
2023-03-26T10:08:32.459Z,9.418246
2023-03-26T10:09:32.595Z,9.418267
2023-03-26T10:10:31.599Z,9.418324
2023-03-26T10:11:31.582Z,9.418359
2023-03-26T10:12:31.594Z,9.418373
2023-03-26T10:13:31.615Z,9.418311
2023-03-26T10:14:31.566Z,9.418329
2023-03-26T10:15:31.562Z,9.418352
2023-03-26T10:16:31.600Z,9.418342
2023-03-26T10:17:31.571Z,9.418350
2023-03-26T10:18:31.632Z,9.418505
2023-03-26T10:19:31.534Z,9.418473
2023-03-26T10:20:31.534Z,9.418343
2023-03-26T10:21:31.520Z,9.418604
2023-03-26T10:22:32.515Z,9.418455
2023-03-26T10:23:31.529Z,9.418357
2023-03-26T10:24:31.513Z,9.418530
2023-03-26T10:25:31.502Z,9.418467
2023-03-26T10:26:31.490Z,9.418493
2023-03-26T10:27:31.478Z,9.418507
2023-03-26T10:28:31.470Z,9.418455
2023-03-26T10:29:31.478Z,9.418475
2023-03-26T10:30:31.487Z,9.418442
2023-03-26T10:31:31.456Z,9.418342
2023-03-26T10:32:31.506Z,9.418434
2023-03-26T10:33:31.440Z,9.418410
2023-03-26T10:34:31.457Z,9.418479
2023-03-26T10:35:31.445Z,9.418296
2023-03-26T10:36:31.450Z,9.418428
2023-03-26T10:37:31.411Z,9.418253
2023-03-26T10:38:31.406Z,9.418288
2023-03-26T10:39:36.624Z,9.418226
2023-03-26T10:40:32.398Z,9.418316
2023-03-26T10:41:31.404Z,9.418257
2023-03-26T10:42:31.396Z,9.418270
2023-03-26T10:43:31.370Z,9.418141
2023-03-26T10:44:31.358Z,9.418267
2023-03-26T10:45:31.354Z,9.418313
2023-03-26T10:46:31.382Z,9.418213
2023-03-26T10:47:31.387Z,9.418415
2023-03-26T10:48:31.335Z,9.418430
2023-03-26T10:49:31.340Z,9.418406
2023-03-26T10:50:31.339Z,9.418388
2023-03-26T10:51:31.330Z,9.418325
2023-03-26T10:52:31.321Z,9.418290
2023-03-26T10:53:31.300Z,9.418311
2023-03-26T10:54:31.337Z,9.418303
2023-03-26T10:55:31.297Z,9.418352
2023-03-26T10:56:31.327Z,9.418364
2023-03-26T10:57:31.309Z,9.418346
2023-03-26T10:58:49.271Z,9.418401
2023-03-26T10:59:32.279Z,9.418368
2023-03-26T11:00:31.268Z,9.418277
2023-03-26T11:01:31.305Z,9.418263
2023-03-26T11:02:31.272Z,9.418316
2023-03-26T11:03:31.239Z,9.418291
2023-03-26T11:04:31.256Z,9.418286
2023-03-26T11:05:31.269Z,9.418130
2023-03-26T11:06:31.227Z,9.418188
2023-03-26T11:07:31.238Z,9.418342
2023-03-26T11:08:32.938Z,9.418382
2023-03-26T11:09:31.202Z,9.418402
2023-03-26T11:10:31.245Z,9.418468
2023-03-26T11:11:31.200Z,9.418477
2023-03-26T11:12:31.195Z,9.418348
2023-03-26T11:13:31.174Z,9.418525
2023-03-26T11:14:34.769Z,9.418133
2023-03-26T11:15:32.201Z,9.418583
2023-03-26T11:16:31.159Z,9.418373
2023-03-26T11:17:40.884Z,9.418369
2023-03-26T11:18:32.140Z,9.417937
2023-03-26T11:19:31.148Z,9.417918
2023-03-26T11:20:31.141Z,9.418283
2023-03-26T11:21:31.119Z,9.418175
2023-03-26T11:22:31.121Z,9.418443
2023-03-26T11:23:31.109Z,9.418238
2023-03-26T11:24:31.108Z,9.418344
2023-03-26T11:25:31.114Z,9.418392
2023-03-26T11:26:31.096Z,9.418294
2023-03-26T11:27:31.089Z,9.418309
2023-03-26T11:28:31.086Z,9.418351
2023-03-26T11:29:33.276Z,9.418439
2023-03-26T11:30:31.070Z,9.418378
2023-03-26T11:31:31.137Z,9.418353
2023-03-26T11:32:31.079Z,9.418353
2023-03-26T11:33:32.780Z,9.418263
2023-03-26T11:34:31.045Z,9.418369
2023-03-26T11:35:40.181Z,9.418363
2023-03-26T11:36:32.031Z,9.418344
2023-03-26T11:37:31.027Z,9.418221
2023-03-26T11:38:31.006Z,9.418347
2023-03-26T11:39:31.008Z,9.418444
2023-03-26T11:40:32.007Z,9.418365
2023-03-26T11:41:30.989Z,9.418242
2023-03-26T11:42:30.979Z,9.418363
2023-03-26T11:43:30.977Z,9.418346
2023-03-26T11:44:30.984Z,9.418281